Time;durP1;ratioP1;P1;durP2;ratioP2;P2;SDS_P1;SDS_P2;PMS_P1;PMS_P2;Temp;Humidity;BMP_temperature;BMP_pressure;BME280_temperature;BME280_humidity;BME280_pressure;Samples;Min_cycle;Max_cycle;Signal;HPM_P1;HPM_P2
2023/09/19 07:23:08;;;;;;;11.70;4.07;;;;;;;-145.79;83.97;77084.78;5280126;28;20382;-73
2023/09/19 07:25:39;;;;;;;10.45;4.45;;;;;;;-145.79;84.10;77082.66;5287771;28;20032;-72
2023/09/19 07:28:14;;;;;;;8.52;3.08;;;;;;;-145.79;83.81;77082.66;5279823;28;20047;-73
2023/09/19 07:30:45;;;;;;;5.82;2.33;;;;;;;-145.79;83.66;77072.06;5280303;28;20385;-73
2023/09/19 07:33:17;;;;;;;10.65;3.25;;;;;;;-145.79;84.08;77074.19;5279048;28;20112;-72
2023/09/19 07:35:48;;;;;;;11.73;3.05;;;;;;;-145.79;83.62;77055.09;5283703;28;20021;-72
2023/09/19 07:38:22;;;;;;;6.53;2.83;;;;;;;-145.79;83.24;77059.34;5295551;28;20380;-72
2023/09/19 07:41:00;;;;;;;8.38;3.28;;;;;;;-145.79;82.58;77046.63;5267020;28;20043;-73
2023/09/19 07:43:31;;;;;;;9.80;3.10;;;;;;;-145.79;82.63;77036.03;5291723;28;20043;-71
2023/09/19 07:46:09;;;;;;;13.98;3.17;;;;;;;-145.79;82.20;77036.03;5279224;28;20107;-72
2023/09/19 07:48:47;;;;;;;8.50;3.42;;;;;;;-145.79;83.41;76985.16;5279550;28;20017;-72
2023/09/19 07:51:19;;;;;;;10.40;3.30;;;;;;;-145.79;81.24;77006.34;5280170;28;20585;-73
2023/09/19 07:53:50;;;;;;;7.30;3.08;;;;;;;-145.79;81.87;76963.97;5280738;28;20056;-72
2023/09/19 07:56:22;;;;;;;8.15;3.55;;;;;;;-145.79;81.47;76936.41;5289149;28;20124;-72
2023/09/19 07:58:53;;;;;;;8.13;2.95;;;;;;;-145.79;79.77;76917.34;5281766;28;20043;-72
2023/09/19 08:01:29;;;;;;;13.70;3.22;;;;;;;-145.79;79.61;76925.81;5292393;28;20028;-72
2023/09/19 08:04:00;;;;;;;9.23;3.53;;;;;;;-145.79;80.06;76906.75;5290060;28;20031;-73
2023/09/19 08:06:35;;;;;;;10.95;3.08;;;;;;;-145.79;78.00;76927.94;5278805;28;20099;-70
2023/09/19 08:09:09;;;;;;;12.32;3.75;;;;;;;-145.79;78.21;76915.22;5278996;28;20029;-70
2023/09/19 08:11:40;;;;;;;8.82;2.95;;;;;;;-145.79;78.13;76896.16;5279305;28;20021;-72
2023/09/19 08:14:14;;;;;;;14.13;3.85;;;;;;;-145.79;77.31;76868.59;5260432;28;20021;-72
2023/09/19 08:16:45;;;;;;;12.32;3.42;;;;;;;-145.79;76.88;76853.75;5271032;28;20092;-72
2023/09/19 08:19:16;;;;;;;12.02;3.38;;;;;;;-145.79;75.83;76891.91;5289225;28;20103;-73
2023/09/19 08:21:52;;;;;;;10.23;3.33;;;;;;;-145.79;76.59;76898.25;5291557;28;20024;-73
2023/09/19 08:24:30;;;;;;;9.43;3.70;;;;;;;-145.79;76.37;76891.91;5288662;28;20593;-72
2023/09/19 08:27:08;;;;;;;8.68;3.15;;;;;;;-145.79;76.03;76902.50;5287390;28;20032;-71
2023/09/19 08:29:40;;;;;;;11.95;3.78;;;;;;;-145.79;75.25;76900.38;5289186;28;20062;-71
2023/09/19 08:32:15;;;;;;;10.70;3.92;;;;;;;-145.79;76.24;76868.59;5291358;28;20113;-73
2023/09/19 08:34:46;;;;;;;9.65;2.92;;;;;;;-145.79;76.24;76860.13;5275712;28;20424;-72
2023/09/19 08:37:18;;;;;;;12.07;3.00;;;;;;;-145.79;75.06;76849.53;5277679;28;20089;-73
2023/09/19 08:39:50;;;;;;;9.80;3.05;;;;;;;-145.79;75.04;76853.75;5273796;28;20029;-76
2023/09/19 08:42:21;;;;;;;13.70;3.35;;;;;;;-145.79;73.58;76832.56;5272965;28;20121;-76
2023/09/19 08:44:55;;;;;;;12.07;3.60;;;;;;;-145.79;73.47;76843.16;5281663;28;20515;-76
2023/09/19 08:47:35;;;;;;;10.30;3.30;;;;;;;-145.79;73.72;76832.56;5273889;28;20028;-76
2023/09/19 08:50:25;;;;;;;8.48;3.10;;;;;;;-145.79;73.48;76830.44;5264692;28;20021;-77
2023/09/19 08:53:01;;;;;;;11.88;2.90;;;;;;;-145.79;73.89;76843.16;5281521;28;20028;-72
2023/09/19 08:55:33;;;;;;;11.43;5.45;;;;;;;-145.79;74.34;76834.69;5271932;28;20028;-72
2023/09/19 08:58:08;;;;;;;12.65;6.28;;;;;;;-145.79;73.33;76841.03;5276183;28;20032;-72
2023/09/19 09:00:42;;;;;;;;;;;;;;;-145.79;73.44;76817.72;5286058;28;20032;-73
2023/09/19 09:03:20;;;;;;;6.70;2.42;;;;;;;-145.79;72.64;76813.50;5262734;28;19920;-73
2023/09/19 09:05:51;;;;;;;6.45;3.55;;;;;;;-145.79;72.73;76796.53;5243739;28;20037;-73
2023/09/19 09:08:26;;;;;;;8.65;3.10;;;;;;;-145.79;72.26;76805.00;5243538;28;20024;-73
2023/09/19 09:10:58;;;;;;;9.57;2.83;;;;;;;-145.79;71.75;76796.53;5242752;28;20030;-73
2023/09/19 09:13:30;;;;;;;5.78;2.70;;;;;;;-145.79;72.00;76796.53;5243838;28;20491;-73
2023/09/19 09:16:02;;;;;;;10.38;4.20;;;;;;;-145.79;71.41;76811.38;5243384;28;20017;-72
2023/09/19 09:18:34;;;;;;;11.32;3.38;;;;;;;-145.79;72.03;76800.78;5251539;28;20073;-73
2023/09/19 09:21:08;;;;;;;9.63;3.30;;;;;;;-145.79;71.20;76794.41;5259972;28;20092;-74
2023/09/19 09:23:39;;;;;;;12.48;3.85;;;;;;;-145.79;71.08;76781.69;5275679;28;20095;-73
2023/09/19 09:26:10;;;;;;;11.65;3.60;;;;;;;-145.79;71.38;76779.59;5275825;28;20490;-73
2023/09/19 09:28:46;;;;;;;11.40;3.72;;;;;;;-145.79;71.71;76790.19;5272267;28;20021;-73
2023/09/19 09:31:27;;;;;;;8.93;2.90;;;;;;;-145.79;71.88;76773.22;5279813;28;20043;-72
2023/09/19 09:34:00;;;;;;;7.47;3.17;;;;;;;-145.79;70.18;76783.81;5284721;28;20115;-73
2023/09/19 09:36:36;;;;;;;8.70;3.58;;;;;;;-145.79;69.34;76754.16;5275825;28;20021;-72
2023/09/19 09:39:24;;;;;;;7.30;3.55;;;;;;;-145.79;69.50;76754.16;5249481;28;20034;-73
2023/09/19 09:41:56;;;;;;;10.07;3.58;;;;;;;-145.79;70.27;76741.44;5279965;28;20108;-72
2023/09/19 09:44:32;;;;;;;8.00;3.53;;;;;;;-145.79;69.89;76728.72;5270890;28;20080;-72
2023/09/19 09:50:06;;;;;;;6.65;2.92;;;;;;;-145.79;66.77;76724.47;5271649;28;20033;-72
2023/09/19 09:52:47;;;;;;;7.43;3.55;;;;;;;-145.79;66.28;76732.97;5271273;28;20025;-72
2023/09/19 09:55:21;;;;;;;9.30;3.30;;;;;;;-145.79;66.80;76722.34;5270925;28;20075;-73
2023/09/19 09:58:28;;;;;;;12.50;4.50;;;;;;;-145.79;66.33;76707.53;5273680;28;20024;-73
2023/09/19 10:01:03;;;;;;;7.78;2.92;;;;;;;-145.79;66.56;76730.84;5270345;28;20025;-72
2023/09/19 10:03:40;;;;;;;6.63;2.67;;;;;;;-145.79;65.63;76707.53;5270213;28;20463;-73
2023/09/19 10:06:25;;;;;;;7.88;3.25;;;;;;;-145.79;65.19;76707.53;5271311;28;20016;-72
2023/09/19 10:09:11;;;;;;;9.63;2.97;;;;;;;-145.79;65.62;76694.81;5263615;28;20037;-72
2023/09/19 10:12:05;;;;;;;8.63;3.22;;;;;;;-145.79;66.06;76694.81;5257408;28;20029;-72
2023/09/19 10:14:38;;;;;;;6.57;3.00;;;;;;;-145.79;65.40;76677.84;5240083;28;20017;-72
2023/09/19 10:17:11;;;;;;;8.57;2.55;;;;;;;-145.79;65.19;76673.63;5241997;28;20028;-72
2023/09/19 10:19:52;;;;;;;7.72;2.60;;;;;;;-145.79;65.08;76650.31;5242381;28;20108;-72
2023/09/19 10:22:30;;;;;;;9.55;4.90;;;;;;;-145.79;64.05;76629.13;5260675;28;20403;-71
2023/09/19 10:25:07;;;;;;;10.10;3.53;;;;;;;-145.79;63.16;76637.59;5262895;28;20141;-71
2023/09/19 10:27:40;;;;;;;8.27;3.25;;;;;;;-145.79;63.65;76635.47;5261864;28;20025;-72
2023/09/19 10:30:34;;;;;;;6.50;2.55;;;;;;;-145.79;63.29;76631.22;5262001;28;20059;-71
2023/09/19 10:33:05;;;;;;;7.13;2.67;;;;;;;-145.79;62.42;76622.75;5262428;28;20021;-71
2023/09/19 10:35:43;;;;;;;7.85;3.20;;;;;;;-145.79;62.74;76633.34;5261715;28;20155;-72
2023/09/19 10:38:20;;;;;;;7.38;2.80;;;;;;;-145.79;61.77;76629.13;5261247;28;20108;-72
2023/09/19 10:40:54;;;;;;;9.45;3.30;;;;;;;-145.79;60.77;76635.47;5262215;28;20047;-72
2023/09/19 10:43:34;;;;;;;17.08;12.18;;;;;;;-145.79;61.24;76637.59;5261940;28;20025;-73
2023/09/19 10:46:11;;;;;;;7.78;3.15;;;;;;;-145.79;61.18;76635.47;5261471;28;20017;-73
2023/09/19 10:48:48;;;;;;;6.13;2.72;;;;;;;-145.79;61.73;76612.16;5261783;28;20384;-73
2023/09/19 10:51:30;;;;;;;5.68;2.65;;;;;;;-145.79;61.34;76588.84;5262346;28;20102;-74
2023/09/19 10:54:11;;;;;;;10.95;3.08;;;;;;;-145.79;60.47;76586.72;5262601;28;20029;-72
2023/09/19 10:56:49;;;;;;;8.32;2.60;;;;;;;-145.79;60.90;76601.56;5261199;28;20056;-72
2023/09/19 10:59:21;;;;;;;6.28;2.33;;;;;;;-145.79;61.01;76588.84;5262384;28;20103;-73
2023/09/19 11:01:58;;;;;;;7.72;3.15;;;;;;;-145.79;60.71;76584.59;5261991;28;20087;-73
2023/09/19 11:04:35;;;;;;;6.07;2.30;;;;;;;-145.79;59.99;76559.19;5260891;28;20379;-72
2023/09/19 11:07:11;;;;;;;10.32;2.80;;;;;;;-145.79;59.90;76548.59;5278688;28;20370;-73
2023/09/19 11:09:45;;;;;;;7.53;2.75;;;;;;;-145.79;59.52;76542.22;5269653;28;20045;-72
2023/09/19 11:12:29;;;;;;;9.27;3.35;;;;;;;-145.79;59.49;76523.16;5273512;28;20092;-72
2023/09/19 11:15:04;;;;;;;5.75;3.03;;;;;;;-145.79;58.64;76508.31;5266226;28;20395;-72
2023/09/19 11:17:41;;;;;;;5.70;3.47;;;;;;;-145.79;58.55;76508.31;5268315;28;20028;-72
2023/09/19 11:23:17;;;;;;;7.20;3.08;;;;;;;-145.79;56.26;76514.69;5261644;28;20484;-72
2023/09/19 11:25:49;;;;;;;5.38;2.13;;;;;;;-145.79;56.05;76506.19;5259056;28;20039;-74
2023/09/19 11:28:25;;;;;;;7.18;2.40;;;;;;;-145.79;55.75;76501.97;5239932;28;20026;-71
2023/09/19 11:30:58;;;;;;;4.90;1.73;;;;;;;-145.79;56.06;76489.25;5249627;28;20491;-71
2023/09/19 11:33:41;;;;;;;7.70;2.65;;;;;;;-145.79;55.65;76470.19;5244944;28;20079;-72
2023/09/19 11:36:14;;;;;;;4.47;2.00;;;;;;;-145.79;55.33;76468.06;5244512;28;20040;-72
2023/09/19 11:38:49;;;;;;;4.63;2.05;;;;;;;-145.79;55.28;76448.97;5260856;28;20035;-73
2023/09/19 11:41:25;;;;;;;5.80;1.87;;;;;;;-145.79;54.38;76436.28;5261417;28;20021;-73
2023/09/19 11:44:05;;;;;;;3.90;2.13;;;;;;;-145.79;54.10;76440.50;5255724;28;20310;-70
2023/09/19 11:46:51;;;;;;;6.15;2.13;;;;;;;-145.79;54.23;76406.59;5267608;28;20524;-70
2023/09/19 11:49:31;;;;;;;5.43;1.90;;;;;;;-145.79;53.88;76415.06;5273582;28;20024;-70
2023/09/19 11:52:08;;;;;;;6.30;2.28;;;;;;;-145.79;53.55;76389.66;5259621;28;20119;-70
2023/09/19 11:54:42;;;;;;;7.53;2.10;;;;;;;-145.79;53.42;76385.41;5263883;28;20031;-69
2023/09/19 11:57:20;;;;;;;7.85;2.72;;;;;;;-145.79;52.96;76381.16;5262705;28;20036;-69
2023/09/19 11:59:53;;;;;;;5.45;1.75;;;;;;;-145.79;52.78;76393.88;5253277;28;20021;-69
2023/09/19 12:02:39;;;;;;;5.60;1.42;;;;;;;-145.79;53.22;76402.38;5260777;28;20539;-69
2023/09/19 12:05:11;;;;;;;3.55;2.08;;;;;;;-145.79;53.12;76385.41;5260736;28;20432;-68
2023/09/19 12:07:47;;;;;;;5.50;1.80;;;;;;;-145.79;53.27;76366.34;5260960;28;20104;-69
2023/09/19 12:10:21;;;;;;;4.75;1.60;;;;;;;-145.79;53.40;76359.97;5262767;28;20029;-69
2023/09/19 12:12:53;;;;;;;4.45;1.88;;;;;;;-145.79;53.38;76368.47;5244152;28;20036;-69
2023/09/19 12:15:28;;;;;;;3.50;1.60;;;;;;;-145.79;53.36;76374.81;5268889;28;20020;-69
2023/09/19 12:18:00;;;;;;;5.70;1.98;;;;;;;-145.79;53.01;76376.94;5285981;28;20383;-69
2023/09/19 12:20:47;;;;;;;4.18;1.50;;;;;;;-145.79;54.01;76393.88;5266319;28;20025;-69
2023/09/19 12:23:19;;;;;;;4.25;1.38;;;;;;;-145.79;53.50;76389.66;5271214;28;20029;-69
2023/09/19 12:25:56;;;;;;;4.15;1.50;;;;;;;-145.79;54.21;76415.06;5282590;28;20107;-68
2023/09/19 12:28:30;;;;;;;7.82;1.33;;;;;;;-145.79;54.44;76423.56;5261437;28;20083;-70
2023/09/19 12:31:08;;;;;;;3.55;1.65;;;;;;;-145.79;54.52;76410.84;5243539;28;20030;-70
2023/09/19 12:33:40;;;;;;;4.47;2.78;;;;;;;-145.79;54.83;76415.06;5252277;28;20207;-70
2023/09/19 12:36:25;;;;;;;3.65;1.40;;;;;;;-145.79;55.64;76434.16;5257260;28;20034;-70
2023/09/19 12:39:00;;;;;;;3.17;1.30;;;;;;;-145.79;55.31;76429.91;5270013;28;20028;-71
2023/09/19 12:41:31;;;;;;;3.72;1.95;;;;;;;-145.79;55.59;76438.38;5268616;28;20116;-71
2023/09/19 12:44:08;;;;;;;5.25;1.50;;;;;;;-145.79;55.00;76429.91;5267220;28;20039;-73
2023/09/19 12:46:41;;;;;;;6.43;1.60;;;;;;;-145.79;55.26;76410.84;5244758;28;20029;-71
2023/09/19 12:49:20;;;;;;;3.70;1.75;;;;;;;-145.79;55.88;76415.06;5254981;28;20056;-72
2023/09/19 12:51:55;;;;;;;2.72;1.20;;;;;;;-145.79;55.76;76415.06;5257326;28;20040;-71
2023/09/19 12:54:38;;;;;;;2.60;1.40;;;;;;;-145.79;55.67;76406.59;5251816;28;20124;-71
2023/09/19 12:57:23;;;;;;;3.50;2.00;;;;;;;-145.79;55.61;76383.28;5256719;28;20052;-71
2023/09/19 12:59:55;;;;;;;6.55;1.52;;;;;;;-145.79;54.91;76376.94;5264506;28;20387;-71
2023/09/19 13:02:28;;;;;;;7.75;1.92;;;;;;;-145.79;54.30;76381.16;5252262;28;20025;-72
2023/09/19 13:05:00;;;;;;;5.72;1.45;;;;;;;-145.79;54.09;76355.75;5257057;28;20025;-71
2023/09/19 13:07:49;;;;;;;4.63;1.30;;;;;;;-145.79;53.99;76364.22;5268628;28;20417;-72
2023/09/19 13:10:24;;;;;;;2.42;1.30;;;;;;;-145.79;53.63;76340.91;5263671;28;20025;-71
2023/09/19 13:12:56;;;;;;;3.33;1.50;;;;;;;-145.79;53.80;76340.91;5273047;28;20033;-72
2023/09/19 13:15:29;;;;;;;3.60;1.38;;;;;;;-145.79;54.13;76359.97;5269234;28;20025;-72
2023/09/19 13:18:13;;;;;;;4.30;1.58;;;;;;;-145.79;54.74;76364.22;5269255;28;20345;-71
2023/09/19 13:21:12;;;;;;;4.53;1.40;;;;;;;-145.79;55.25;76376.94;5254678;28;20522;-68
2023/09/19 13:23:43;;;;;;;4.57;1.20;;;;;;;-145.79;55.44;76398.13;5274609;28;20025;-69
2023/09/19 13:26:14;;;;;;;5.05;2.75;;;;;;;-145.79;55.63;76398.13;5268433;28;20017;-70
2023/09/19 13:28:47;;;;;;;2.92;1.20;;;;;;;-145.79;55.58;76410.84;5275759;28;20020;-71
2023/09/19 13:31:19;;;;;;;5.43;1.50;;;;;;;-145.79;55.66;76425.66;5283941;28;20111;-71
2023/09/19 13:33:52;;;;;;;2.28;1.27;;;;;;;-145.79;56.02;76412.97;5284504;28;20116;-72
2023/09/19 13:36:23;;;;;;;3.70;1.30;;;;;;;-145.79;55.92;76410.84;5262456;28;20044;-70
2023/09/19 13:38:55;;;;;;;3.20;1.20;;;;;;;-145.79;56.28;76415.06;5251942;28;20484;-71
2023/09/19 13:41:26;;;;;;;3.65;1.48;;;;;;;-145.79;56.22;76419.31;5261782;28;20430;-71
2023/09/19 13:43:58;;;;;;;4.63;1.70;;;;;;;-145.79;56.84;76415.06;5262911;28;20074;-70
2023/09/19 13:46:30;;;;;;;3.00;1.33;;;;;;;-145.79;56.84;76415.06;5261727;28;20025;-70
2023/09/19 13:49:03;;;;;;;3.63;1.65;;;;;;;-145.79;56.68;76421.44;5243057;28;20017;-70
2023/09/19 13:51:35;;;;;;;4.53;1.70;;;;;;;-145.79;56.40;76421.44;5257536;28;20480;-68
2023/09/19 13:54:06;;;;;;;4.65;1.90;;;;;;;-145.79;56.10;76423.56;5271804;28;20029;-70
2023/09/19 13:56:38;;;;;;;2.75;1.50;;;;;;;-145.79;56.15;76419.31;5274941;28;20021;-68
2023/09/19 13:59:10;;;;;;;7.55;1.65;;;;;;;-145.79;56.05;76421.44;5263105;28;20375;-69
2023/09/19 14:01:41;;;;;;;3.97;1.38;;;;;;;-145.79;56.54;76410.84;5259161;28;20063;-67
2023/09/19 14:04:13;;;;;;;3.28;1.30;;;;;;;-145.79;56.64;76406.59;5271246;28;20024;-68
2023/09/19 14:06:45;;;;;;;3.17;1.52;;;;;;;-145.79;56.88;76421.44;5270233;28;20029;-65
2023/09/19 14:09:19;;;;;;;4.45;1.40;;;;;;;-145.79;56.65;76402.38;5270574;28;20090;-66
2023/09/19 14:11:52;;;;;;;2.88;1.50;;;;;;;-145.79;57.28;76402.38;5258208;28;20456;-67
2023/09/19 14:14:23;;;;;;;4.45;1.38;;;;;;;-145.79;57.23;76406.59;5259349;28;20033;-67
2023/09/19 14:16:55;;;;;;;3.25;1.20;;;;;;;-145.79;56.63;76400.25;5245488;28;20033;-66
2023/09/19 14:19:27;;;;;;;3.05;1.55;;;;;;;-145.79;56.90;76402.38;5261550;28;20494;-69
2023/09/19 14:22:00;;;;;;;3.90;1.38;;;;;;;-145.79;57.12;76393.88;5262883;28;20392;-70
2023/09/19 14:24:31;;;;;;;4.05;1.55;;;;;;;-145.79;56.76;76398.13;5274780;28;20021;-69
2023/09/19 14:27:08;;;;;;;7.35;1.63;;;;;;;-145.79;57.22;76381.16;5265687;28;20393;-68
2023/09/19 14:29:41;;;;;;;1.88;1.10;;;;;;;-145.79;56.70;76393.88;5241971;28;20507;-71
2023/09/19 14:32:12;;;;;;;3.55;1.70;;;;;;;-145.79;56.67;76396.00;5251365;28;20033;-69
2023/09/19 14:34:44;;;;;;;3.42;1.38;;;;;;;-145.79;57.00;76389.66;5265094;28;20479;-68
2023/09/19 14:37:21;;;;;;;2.40;1.55;;;;;;;-145.79;57.14;76381.16;5264784;28;20158;-69
2023/09/19 14:39:52;;;;;;;10.35;7.80;;;;;;;-145.79;57.72;76374.81;5270837;28;20484;-66
2023/09/19 14:42:25;;;;;;;3.17;1.60;;;;;;;-145.79;57.35;76372.69;5261528;28;20048;-69
2023/09/19 14:44:57;;;;;;;5.43;1.50;;;;;;;-145.79;57.31;76376.94;5265849;28;20021;-70
2023/09/19 14:47:28;;;;;;;3.67;1.40;;;;;;;-145.79;57.54;76372.69;5265498;28;20028;-69
2023/09/19 14:50:02;;;;;;;3.45;1.15;;;;;;;-145.79;57.64;76368.47;5279052;28;20025;-69
2023/09/19 14:52:36;;;;;;;3.63;1.35;;;;;;;-145.79;57.89;76357.84;5270260;28;20048;-69
2023/09/19 14:55:09;;;;;;;5.20;1.58;;;;;;;-145.79;57.48;76355.75;5273902;28;20137;-69
2023/09/19 14:57:45;;;;;;;4.35;1.60;;;;;;;-145.79;57.42;76376.94;5273731;28;20489;-68
2023/09/19 15:00:21;;;;;;;4.18;1.17;;;;;;;-145.79;57.31;76364.22;5271199;28;20033;-69
2023/09/19 15:02:53;;;;;;;4.88;1.30;;;;;;;-145.79;57.62;76366.34;5240498;28;20108;-69
2023/09/19 15:05:24;;;;;;;2.08;1.10;;;;;;;-145.79;58.05;76376.94;5241290;28;20536;-67
2023/09/19 15:07:56;;;;;;;4.47;1.67;;;;;;;-145.79;58.35;76385.41;5246549;28;20028;-66
2023/09/19 15:10:28;;;;;;;6.82;4.65;;;;;;;-145.79;58.32;76379.06;5243736;28;20025;-67
2023/09/19 15:12:59;;;;;;;2.80;1.40;;;;;;;-145.79;58.40;76376.94;5257571;28;20021;-66
2023/09/19 15:15:31;;;;;;;7.20;2.40;;;;;;;-145.79;58.02;76385.41;5256553;28;20033;-66
2023/09/19 15:18:04;;;;;;;4.40;1.40;;;;;;;-145.79;58.19;76383.28;5249952;28;20416;-66
2023/09/19 15:20:38;;;;;;;3.78;1.90;;;;;;;-145.79;58.59;76364.22;5255113;28;20107;-66
2023/09/19 15:23:09;;;;;;;5.20;1.30;;;;;;;-145.79;57.98;76383.28;5240052;28;20100;-66
2023/09/19 15:25:47;;;;;;;8.50;1.83;;;;;;;-145.79;58.62;76381.16;5241621;28;20096;-66
2023/09/19 15:28:22;;;;;;;4.15;1.70;;;;;;;-145.79;58.38;76381.16;5241217;28;20132;-67
2023/09/19 15:31:07;;;;;;;2.75;1.52;;;;;;;-145.79;58.38;76374.81;5244107;28;20086;-67
2023/09/19 15:33:40;;;;;;;4.43;1.63;;;;;;;-145.79;58.01;76385.41;5258543;28;20040;-66
2023/09/19 15:36:13;;;;;;;2.67;1.75;;;;;;;-145.79;58.35;76372.69;5248040;28;20021;-67
2023/09/19 15:39:01;;;;;;;2.75;1.50;;;;;;;-145.79;58.55;76381.16;5256483;28;20026;-66
2023/09/19 15:41:37;;;;;;;3.20;1.73;;;;;;;-145.79;58.92;76393.88;5261262;28;20139;-66
2023/09/19 15:44:15;;;;;;;1.98;1.42;;;;;;;-145.79;58.79;76398.13;5263330;28;20396;-66
2023/09/19 15:46:47;;;;;;;4.68;1.70;;;;;;;-145.79;58.74;76402.38;5266021;28;20025;-66
2023/09/19 15:49:19;;;;;;;6.20;1.73;;;;;;;-145.79;59.08;76408.72;5264184;28;20079;-65
2023/09/19 15:51:50;;;;;;;2.75;1.63;;;;;;;-145.79;59.23;76417.19;5258569;28;20473;-66
2023/09/19 15:54:25;;;;;;;3.28;1.48;;;;;;;-145.79;59.29;76412.97;5244878;28;20021;-66
2023/09/19 15:56:56;;;;;;;2.88;1.40;;;;;;;-145.79;59.41;76417.19;5250118;28;20037;-66
2023/09/19 15:59:30;;;;;;;6.20;1.58;;;;;;;-145.79;59.54;76408.72;5251265;28;20061;-67
2023/09/19 16:02:01;;;;;;;4.35;1.83;;;;;;;-145.79;59.71;76423.56;5244925;28;20022;-68
2023/09/19 16:04:32;;;;;;;4.25;1.50;;;;;;;-145.79;59.95;76432.03;5251064;28;20064;-67
2023/09/19 16:07:06;;;;;;;4.25;1.40;;;;;;;-145.79;60.43;76442.63;5265520;28;20025;-67
2023/09/19 16:09:38;;;;;;;4.18;1.80;;;;;;;-145.79;60.61;76455.34;5251495;28;20423;-68
2023/09/19 16:12:14;;;;;;;4.82;1.60;;;;;;;-145.79;60.72;76453.22;5273739;28;20025;-67
2023/09/19 16:14:45;;;;;;;4.55;1.30;;;;;;;-145.79;60.99;76453.22;5277601;28;20021;-67
2023/09/19 16:17:16;;;;;;;5.32;1.80;;;;;;;-145.79;61.42;76459.56;5266511;28;20031;-67
2023/09/19 16:19:48;;;;;;;3.65;2.10;;;;;;;-145.79;61.32;76468.06;5272560;28;20017;-67
2023/09/19 16:22:19;;;;;;;5.38;1.90;;;;;;;-145.79;61.43;76472.28;5274084;28;20174;-67
2023/09/19 16:24:51;;;;;;;7.13;2.05;;;;;;;-145.79;61.04;76474.41;5271417;28;20021;-67
2023/09/19 16:27:23;;;;;;;3.83;1.67;;;;;;;-145.79;61.25;76482.88;5265429;28;20039;-67
2023/09/19 16:29:54;;;;;;;5.43;1.80;;;;;;;-145.79;61.37;76489.25;5273709;28;20041;-67
2023/09/19 16:32:26;;;;;;;4.88;2.22;;;;;;;-145.79;61.49;76499.84;5275483;28;20529;-67
2023/09/19 16:34:57;;;;;;;3.63;2.05;;;;;;;-145.79;61.86;76491.38;5265247;28;20364;-67
2023/09/19 16:37:28;;;;;;;3.35;1.55;;;;;;;-145.79;61.80;76487.13;5252429;28;20029;-67
2023/09/19 16:40:00;;;;;;;5.05;1.73;;;;;;;-145.79;61.68;76491.38;5276780;28;20021;-67
2023/09/19 16:42:31;;;;;;;3.67;1.60;;;;;;;-145.79;61.97;76501.97;5276952;28;20033;-67
2023/09/19 16:45:04;;;;;;;3.65;1.67;;;;;;;-145.79;62.35;76497.72;5264212;28;20052;-67
2023/09/19 16:47:37;;;;;;;8.63;1.95;;;;;;;-145.79;62.29;76499.84;5243465;28;20021;-68
2023/09/19 16:50:11;;;;;;;3.90;1.75;;;;;;;-145.79;62.32;76501.97;5273410;28;20033;-68
2023/09/19 16:52:43;;;;;;;5.13;1.80;;;;;;;-145.79;62.50;76491.38;5263346;28;20377;-67
